sensor_id;sensor_type;location;lat;lon;timestamp;P1;durP1;ratioP1;P2;durP2;ratioP2
45338;SDS011;31071;51.478;5.710;2022-10-23T00:01:55;27.70;;;8.10;;
45338;SDS011;31071;51.478;5.710;2022-10-23T00:04:21;17.13;;;8.05;;
45338;SDS011;31071;51.478;5.710;2022-10-23T00:06:49;13.10;;;7.60;;
45338;SDS011;31071;51.478;5.710;2022-10-23T00:09:17;18.05;;;7.93;;
45338;SDS011;31071;51.478;5.710;2022-10-23T00:11:48;12.13;;;7.72;;
45338;SDS011;31071;51.478;5.710;2022-10-23T00:14:15;14.48;;;7.18;;
45338;SDS011;31071;51.478;5.710;2022-10-23T00:16:43;15.30;;;7.32;;
45338;SDS011;31071;51.478;5.710;2022-10-23T00:19:09;17.23;;;8.10;;
45338;SDS011;31071;51.478;5.710;2022-10-23T00:21:35;11.27;;;7.05;;
45338;SDS011;31071;51.478;5.710;2022-10-23T00:24:01;16.27;;;7.13;;
45338;SDS011;31071;51.478;5.710;2022-10-23T00:26:27;15.73;;;7.43;;
45338;SDS011;31071;51.478;5.710;2022-10-23T00:28:53;23.27;;;8.00;;
45338;SDS011;31071;51.478;5.710;2022-10-23T00:31:19;15.85;;;7.70;;
45338;SDS011;31071;51.478;5.710;2022-10-23T00:33:46;17.80;;;7.65;;
45338;SDS011;31071;51.478;5.710;2022-10-23T00:36:13;21.55;;;7.97;;
45338;SDS011;31071;51.478;5.710;2022-10-23T00:38:40;17.17;;;7.50;;
45338;SDS011;31071;51.478;5.710;2022-10-23T00:41:06;12.48;;;7.22;;
45338;SDS011;31071;51.478;5.710;2022-10-23T00:43:33;11.57;;;7.93;;
45338;SDS011;31071;51.478;5.710;2022-10-23T00:46:17;14.68;;;7.95;;
45338;SDS011;31071;51.478;5.710;2022-10-23T00:48:42;24.30;;;8.63;;
45338;SDS011;31071;51.478;5.710;2022-10-23T00:51:08;24.10;;;8.40;;
45338;SDS011;31071;51.478;5.710;2022-10-23T00:53:33;14.38;;;7.97;;
45338;SDS011;31071;51.478;5.710;2022-10-23T00:55:59;19.55;;;8.05;;
45338;SDS011;31071;51.478;5.710;2022-10-23T00:58:27;19.83;;;8.80;;
45338;SDS011;31071;51.478;5.710;2022-10-23T01:00:53;17.83;;;8.10;;
45338;SDS011;31071;51.478;5.710;2022-10-23T01:03:20;29.30;;;8.63;;
45338;SDS011;31071;51.478;5.710;2022-10-23T01:08:28;19.95;;;8.80;;
45338;SDS011;31071;51.478;5.710;2022-10-23T01:11:09;22.02;;;8.50;;
45338;SDS011;31071;51.478;5.710;2022-10-23T01:16:13;20.35;;;8.43;;
45338;SDS011;31071;51.478;5.710;2022-10-23T01:18:46;16.15;;;8.63;;
45338;SDS011;31071;51.478;5.710;2022-10-23T01:23:56;20.85;;;9.13;;
45338;SDS011;31071;51.478;5.710;2022-10-23T01:31:48;22.02;;;9.38;;
45338;SDS011;31071;51.478;5.710;2022-10-23T01:34:44;18.05;;;9.43;;
45338;SDS011;31071;51.478;5.710;2022-10-23T01:39:49;25.42;;;10.30;;
45338;SDS011;31071;51.478;5.710;2022-10-23T01:42:20;20.70;;;9.00;;
45338;SDS011;31071;51.478;5.710;2022-10-23T01:44:59;16.42;;;9.15;;
45338;SDS011;31071;51.478;5.710;2022-10-23T01:47:29;25.00;;;9.30;;
45338;SDS011;31071;51.478;5.710;2022-10-23T01:49:59;22.85;;;10.02;;
45338;SDS011;31071;51.478;5.710;2022-10-23T01:52:28;24.02;;;11.20;;
45338;SDS011;31071;51.478;5.710;2022-10-23T01:54:54;24.88;;;11.10;;
45338;SDS011;31071;51.478;5.710;2022-10-23T01:57:26;25.83;;;10.73;;
45338;SDS011;31071;51.478;5.710;2022-10-23T01:59:57;28.17;;;11.35;;
45338;SDS011;31071;51.478;5.710;2022-10-23T02:02:44;21.75;;;9.75;;
45338;SDS011;31071;51.478;5.710;2022-10-23T02:05:25;26.02;;;9.60;;
45338;SDS011;31071;51.478;5.710;2022-10-23T02:07:52;24.27;;;10.80;;
45338;SDS011;31071;51.478;5.710;2022-10-23T02:10:18;19.45;;;8.98;;
45338;SDS011;31071;51.478;5.710;2022-10-23T02:13:02;23.60;;;10.63;;
45338;SDS011;31071;51.478;5.710;2022-10-23T02:15:36;20.50;;;9.75;;
45338;SDS011;31071;51.478;5.710;2022-10-23T02:20:44;18.80;;;9.95;;
45338;SDS011;31071;51.478;5.710;2022-10-23T02:24:00;17.27;;;10.68;;
45338;SDS011;31071;51.478;5.710;2022-10-23T02:26:23;20.05;;;10.48;;
45338;SDS011;31071;51.478;5.710;2022-10-23T02:29:06;23.73;;;10.48;;
45338;SDS011;31071;51.478;5.710;2022-10-23T02:31:41;19.75;;;10.65;;
45338;SDS011;31071;51.478;5.710;2022-10-23T02:34:07;20.50;;;10.10;;
45338;SDS011;31071;51.478;5.710;2022-10-23T02:36:33;19.73;;;10.88;;
45338;SDS011;31071;51.478;5.710;2022-10-23T02:38:58;21.35;;;10.90;;
45338;SDS011;31071;51.478;5.710;2022-10-23T02:41:29;19.02;;;10.38;;
45338;SDS011;31071;51.478;5.710;2022-10-23T02:44:16;21.35;;;10.73;;
45338;SDS011;31071;51.478;5.710;2022-10-23T02:47:03;28.00;;;10.80;;
45338;SDS011;31071;51.478;5.710;2022-10-23T02:52:23;23.92;;;11.10;;
45338;SDS011;31071;51.478;5.710;2022-10-23T02:57:55;22.70;;;10.48;;
45338;SDS011;31071;51.478;5.710;2022-10-23T03:00:30;27.05;;;10.85;;
45338;SDS011;31071;51.478;5.710;2022-10-23T03:05:48;22.65;;;10.02;;
45338;SDS011;31071;51.478;5.710;2022-10-23T03:08:14;27.85;;;9.88;;
45338;SDS011;31071;51.478;5.710;2022-10-23T03:10:40;26.00;;;9.15;;
45338;SDS011;31071;51.478;5.710;2022-10-23T03:13:06;23.20;;;9.25;;
45338;SDS011;31071;51.478;5.710;2022-10-23T03:15:32;18.52;;;8.93;;
45338;SDS011;31071;51.478;5.710;2022-10-23T03:17:57;16.80;;;9.05;;
45338;SDS011;31071;51.478;5.710;2022-10-23T03:20:23;21.42;;;10.25;;
45338;SDS011;31071;51.478;5.710;2022-10-23T03:22:49;18.63;;;9.35;;
45338;SDS011;31071;51.478;5.710;2022-10-23T03:25:14;25.50;;;9.80;;
45338;SDS011;31071;51.478;5.710;2022-10-23T03:27:40;25.10;;;9.88;;
45338;SDS011;31071;51.478;5.710;2022-10-23T03:30:06;21.90;;;9.10;;
45338;SDS011;31071;51.478;5.710;2022-10-23T03:32:33;15.80;;;8.15;;
45338;SDS011;31071;51.478;5.710;2022-10-23T03:34:58;20.02;;;7.95;;
45338;SDS011;31071;51.478;5.710;2022-10-23T03:37:24;24.33;;;8.15;;
45338;SDS011;31071;51.478;5.710;2022-10-23T03:39:49;23.08;;;8.40;;
45338;SDS011;31071;51.478;5.710;2022-10-23T03:42:15;14.40;;;7.55;;
45338;SDS011;31071;51.478;5.710;2022-10-23T03:44:41;18.10;;;8.38;;
45338;SDS011;31071;51.478;5.710;2022-10-23T03:47:06;20.80;;;8.05;;
45338;SDS011;31071;51.478;5.710;2022-10-23T03:49:34;20.35;;;8.10;;
45338;SDS011;31071;51.478;5.710;2022-10-23T03:51:59;17.30;;;8.23;;
45338;SDS011;31071;51.478;5.710;2022-10-23T03:54:26;16.92;;;8.00;;
45338;SDS011;31071;51.478;5.710;2022-10-23T03:56:53;15.52;;;7.30;;
45338;SDS011;31071;51.478;5.710;2022-10-23T03:59:19;17.27;;;8.13;;
45338;SDS011;31071;51.478;5.710;2022-10-23T04:01:45;19.55;;;7.97;;
45338;SDS011;31071;51.478;5.710;2022-10-23T04:04:11;20.40;;;7.53;;
45338;SDS011;31071;51.478;5.710;2022-10-23T04:06:37;18.48;;;7.72;;
45338;SDS011;31071;51.478;5.710;2022-10-23T04:09:03;16.67;;;8.02;;
45338;SDS011;31071;51.478;5.710;2022-10-23T04:11:30;21.02;;;8.30;;
45338;SDS011;31071;51.478;5.710;2022-10-23T04:13:55;21.35;;;7.43;;
45338;SDS011;31071;51.478;5.710;2022-10-23T04:16:21;27.50;;;8.43;;
45338;SDS011;31071;51.478;5.710;2022-10-23T04:18:48;15.00;;;7.55;;
45338;SDS011;31071;51.478;5.710;2022-10-23T04:21:13;11.85;;;8.20;;
45338;SDS011;31071;51.478;5.710;2022-10-23T04:23:39;17.67;;;7.93;;
45338;SDS011;31071;51.478;5.710;2022-10-23T04:26:04;17.85;;;7.97;;
45338;SDS011;31071;51.478;5.710;2022-10-23T04:28:30;20.40;;;8.10;;
45338;SDS011;31071;51.478;5.710;2022-10-23T04:30:56;13.57;;;7.20;;
45338;SDS011;31071;51.478;5.710;2022-10-23T04:33:21;16.73;;;7.53;;
45338;SDS011;31071;51.478;5.710;2022-10-23T04:35:47;15.43;;;7.60;;
45338;SDS011;31071;51.478;5.710;2022-10-23T04:38:12;15.20;;;7.82;;
45338;SDS011;31071;51.478;5.710;2022-10-23T04:40:38;16.58;;;7.63;;
45338;SDS011;31071;51.478;5.710;2022-10-23T04:43:03;16.23;;;8.70;;
45338;SDS011;31071;51.478;5.710;2022-10-23T04:45:29;15.73;;;7.68;;
45338;SDS011;31071;51.478;5.710;2022-10-23T04:47:54;14.85;;;7.40;;
45338;SDS011;31071;51.478;5.710;2022-10-23T04:50:20;11.93;;;8.13;;
45338;SDS011;31071;51.478;5.710;2022-10-23T04:55:20;19.55;;;7.95;;
45338;SDS011;31071;51.478;5.710;2022-10-23T04:57:46;17.10;;;8.38;;
45338;SDS011;31071;51.478;5.710;2022-10-23T05:00:12;14.45;;;8.23;;
45338;SDS011;31071;51.478;5.710;2022-10-23T05:02:38;16.17;;;9.00;;
45338;SDS011;31071;51.478;5.710;2022-10-23T05:05:04;16.65;;;8.43;;
45338;SDS011;31071;51.478;5.710;2022-10-23T05:07:31;20.73;;;9.02;;
45338;SDS011;31071;51.478;5.710;2022-10-23T05:09:56;14.77;;;8.90;;
45338;SDS011;31071;51.478;5.710;2022-10-23T05:12:24;18.73;;;9.05;;
45338;SDS011;31071;51.478;5.710;2022-10-23T05:14:51;21.27;;;10.35;;
45338;SDS011;31071;51.478;5.710;2022-10-23T05:17:18;15.25;;;9.63;;
45338;SDS011;31071;51.478;5.710;2022-10-23T05:19:49;17.65;;;10.05;;
45338;SDS011;31071;51.478;5.710;2022-10-23T05:22:17;19.67;;;9.98;;
45338;SDS011;31071;51.478;5.710;2022-10-23T05:24:44;18.63;;;9.48;;
45338;SDS011;31071;51.478;5.710;2022-10-23T05:27:10;20.58;;;10.27;;
45338;SDS011;31071;51.478;5.710;2022-10-23T05:29:35;21.13;;;10.20;;
45338;SDS011;31071;51.478;5.710;2022-10-23T05:32:01;23.35;;;10.52;;
45338;SDS011;31071;51.478;5.710;2022-10-23T05:34:29;14.95;;;9.88;;
45338;SDS011;31071;51.478;5.710;2022-10-23T05:36:56;22.30;;;9.70;;
45338;SDS011;31071;51.478;5.710;2022-10-23T05:39:22;18.88;;;10.90;;
45338;SDS011;31071;51.478;5.710;2022-10-23T05:41:48;18.17;;;10.13;;
45338;SDS011;31071;51.478;5.710;2022-10-23T05:44:15;19.52;;;10.40;;
45338;SDS011;31071;51.478;5.710;2022-10-23T05:46:40;16.80;;;10.50;;
45338;SDS011;31071;51.478;5.710;2022-10-23T05:49:07;21.52;;;11.05;;
45338;SDS011;31071;51.478;5.710;2022-10-23T05:51:35;20.48;;;10.40;;
45338;SDS011;31071;51.478;5.710;2022-10-23T05:54:01;19.98;;;10.32;;
45338;SDS011;31071;51.478;5.710;2022-10-23T05:56:27;19.77;;;10.45;;
45338;SDS011;31071;51.478;5.710;2022-10-23T05:58:53;20.40;;;10.55;;
45338;SDS011;31071;51.478;5.710;2022-10-23T06:01:18;19.48;;;10.52;;
45338;SDS011;31071;51.478;5.710;2022-10-23T06:03:44;15.18;;;10.00;;
45338;SDS011;31071;51.478;5.710;2022-10-23T06:06:09;19.08;;;9.85;;
45338;SDS011;31071;51.478;5.710;2022-10-23T06:08:35;19.23;;;9.90;;
45338;SDS011;31071;51.478;5.710;2022-10-23T06:11:06;16.13;;;10.07;;
45338;SDS011;31071;51.478;5.710;2022-10-23T06:13:36;24.05;;;10.73;;
45338;SDS011;31071;51.478;5.710;2022-10-23T06:16:12;19.98;;;10.35;;
45338;SDS011;31071;51.478;5.710;2022-10-23T06:18:40;19.38;;;10.60;;
45338;SDS011;31071;51.478;5.710;2022-10-23T06:21:06;21.45;;;10.15;;
45338;SDS011;31071;51.478;5.710;2022-10-23T06:23:32;20.10;;;10.27;;
45338;SDS011;31071;51.478;5.710;2022-10-23T06:25:59;16.70;;;10.05;;
45338;SDS011;31071;51.478;5.710;2022-10-23T06:28:25;16.85;;;10.48;;
45338;SDS011;31071;51.478;5.710;2022-10-23T06:30:51;20.30;;;9.75;;
45338;SDS011;31071;51.478;5.710;2022-10-23T06:33:17;18.90;;;9.70;;
45338;SDS011;31071;51.478;5.710;2022-10-23T06:35:54;18.35;;;9.60;;
45338;SDS011;31071;51.478;5.710;2022-10-23T06:38:58;15.10;;;9.32;;
45338;SDS011;31071;51.478;5.710;2022-10-23T06:41:24;19.58;;;9.02;;
45338;SDS011;31071;51.478;5.710;2022-10-23T06:43:52;18.85;;;8.35;;
45338;SDS011;31071;51.478;5.710;2022-10-23T06:46:22;17.42;;;8.82;;
45338;SDS011;31071;51.478;5.710;2022-10-23T06:49:12;15.65;;;9.15;;
45338;SDS011;31071;51.478;5.710;2022-10-23T06:51:41;23.10;;;8.40;;
45338;SDS011;31071;51.478;5.710;2022-10-23T06:54:08;14.93;;;8.35;;
45338;SDS011;31071;51.478;5.710;2022-10-23T06:56:35;14.77;;;8.70;;
45338;SDS011;31071;51.478;5.710;2022-10-23T06:59:01;15.02;;;8.90;;
45338;SDS011;31071;51.478;5.710;2022-10-23T07:01:27;13.35;;;7.97;;
45338;SDS011;31071;51.478;5.710;2022-10-23T07:03:54;12.65;;;7.82;;
45338;SDS011;31071;51.478;5.710;2022-10-23T07:06:21;15.80;;;8.13;;
45338;SDS011;31071;51.478;5.710;2022-10-23T07:08:47;16.30;;;8.38;;
45338;SDS011;31071;51.478;5.710;2022-10-23T07:11:15;14.57;;;8.02;;
45338;SDS011;31071;51.478;5.710;2022-10-23T07:13:41;12.25;;;7.95;;
45338;SDS011;31071;51.478;5.710;2022-10-23T07:16:12;15.75;;;8.15;;
45338;SDS011;31071;51.478;5.710;2022-10-23T07:18:39;10.27;;;7.40;;
45338;SDS011;31071;51.478;5.710;2022-10-23T07:21:05;14.20;;;7.43;;
45338;SDS011;31071;51.478;5.710;2022-10-23T07:23:31;13.38;;;7.10;;
45338;SDS011;31071;51.478;5.710;2022-10-23T07:26:03;15.38;;;7.10;;
45338;SDS011;31071;51.478;5.710;2022-10-23T07:28:41;12.38;;;7.53;;
45338;SDS011;31071;51.478;5.710;2022-10-23T07:31:08;13.52;;;7.47;;
45338;SDS011;31071;51.478;5.710;2022-10-23T07:33:38;13.75;;;7.38;;
45338;SDS011;31071;51.478;5.710;2022-10-23T07:36:08;11.25;;;7.15;;
45338;SDS011;31071;51.478;5.710;2022-10-23T07:38:34;11.93;;;7.05;;
45338;SDS011;31071;51.478;5.710;2022-10-23T07:41:00;11.15;;;6.95;;
45338;SDS011;31071;51.478;5.710;2022-10-23T07:43:26;13.43;;;6.97;;
45338;SDS011;31071;51.478;5.710;2022-10-23T07:46:01;13.88;;;7.00;;
45338;SDS011;31071;51.478;5.710;2022-10-23T07:48:32;8.82;;;6.80;;
45338;SDS011;31071;51.478;5.710;2022-10-23T07:50:58;10.68;;;7.13;;
45338;SDS011;31071;51.478;5.710;2022-10-23T07:53:25;14.80;;;7.75;;
45338;SDS011;31071;51.478;5.710;2022-10-23T07:55:55;14.88;;;6.47;;
45338;SDS011;31071;51.478;5.710;2022-10-23T07:58:22;10.95;;;6.65;;
45338;SDS011;31071;51.478;5.710;2022-10-23T08:00:53;11.82;;;7.15;;
45338;SDS011;31071;51.478;5.710;2022-10-23T08:03:22;8.57;;;6.35;;
45338;SDS011;31071;51.478;5.710;2022-10-23T08:05:48;10.63;;;6.38;;
45338;SDS011;31071;51.478;5.710;2022-10-23T08:08:14;10.43;;;6.88;;
45338;SDS011;31071;51.478;5.710;2022-10-23T08:10:40;16.60;;;6.00;;
45338;SDS011;31071;51.478;5.710;2022-10-23T08:13:06;10.48;;;6.03;;
45338;SDS011;31071;51.478;5.710;2022-10-23T08:15:33;10.48;;;6.47;;
45338;SDS011;31071;51.478;5.710;2022-10-23T08:18:07;11.27;;;5.93;;
45338;SDS011;31071;51.478;5.710;2022-10-23T08:20:36;9.80;;;5.47;;
45338;SDS011;31071;51.478;5.710;2022-10-23T08:23:06;12.40;;;5.90;;
45338;SDS011;31071;51.478;5.710;2022-10-23T08:25:32;11.75;;;6.00;;
45338;SDS011;31071;51.478;5.710;2022-10-23T08:27:58;11.90;;;6.03;;
45338;SDS011;31071;51.478;5.710;2022-10-23T08:30:23;11.80;;;5.50;;
45338;SDS011;31071;51.478;5.710;2022-10-23T08:32:49;8.90;;;5.53;;
45338;SDS011;31071;51.478;5.710;2022-10-23T08:35:15;8.95;;;5.18;;
45338;SDS011;31071;51.478;5.710;2022-10-23T08:37:40;8.15;;;5.38;;
45338;SDS011;31071;51.478;5.710;2022-10-23T08:40:06;13.73;;;5.40;;
45338;SDS011;31071;51.478;5.710;2022-10-23T08:42:35;10.60;;;5.10;;
45338;SDS011;31071;51.478;5.710;2022-10-23T08:48:11;13.18;;;5.40;;
45338;SDS011;31071;51.478;5.710;2022-10-23T08:50:55;10.75;;;5.05;;
45338;SDS011;31071;51.478;5.710;2022-10-23T08:56:11;10.40;;;4.78;;
45338;SDS011;31071;51.478;5.710;2022-10-23T08:58:46;7.30;;;4.80;;
45338;SDS011;31071;51.478;5.710;2022-10-23T09:01:36;10.57;;;4.97;;
45338;SDS011;31071;51.478;5.710;2022-10-23T09:04:08;7.05;;;4.40;;
45338;SDS011;31071;51.478;5.710;2022-10-23T09:12:06;12.15;;;4.50;;
45338;SDS011;31071;51.478;5.710;2022-10-23T09:17:21;6.68;;;4.75;;
45338;SDS011;31071;51.478;5.710;2022-10-23T09:19:50;7.38;;;4.40;;
45338;SDS011;31071;51.478;5.710;2022-10-23T09:22:40;9.02;;;4.55;;
45338;SDS011;31071;51.478;5.710;2022-10-23T09:25:08;13.27;;;4.22;;
45338;SDS011;31071;51.478;5.710;2022-10-23T09:27:35;7.25;;;4.40;;
45338;SDS011;31071;51.478;5.710;2022-10-23T09:30:01;7.38;;;4.35;;
45338;SDS011;31071;51.478;5.710;2022-10-23T09:32:36;11.68;;;4.63;;
45338;SDS011;31071;51.478;5.710;2022-10-23T09:35:02;10.75;;;4.13;;
45338;SDS011;31071;51.478;5.710;2022-10-23T09:37:30;9.88;;;4.03;;
45338;SDS011;31071;51.478;5.710;2022-10-23T09:40:35;6.72;;;4.20;;
45338;SDS011;31071;51.478;5.710;2022-10-23T09:43:09;6.93;;;4.05;;
45338;SDS011;31071;51.478;5.710;2022-10-23T09:45:38;8.43;;;4.03;;
45338;SDS011;31071;51.478;5.710;2022-10-23T09:48:10;7.40;;;4.70;;
45338;SDS011;31071;51.478;5.710;2022-10-23T09:50:41;6.90;;;4.13;;
45338;SDS011;31071;51.478;5.710;2022-10-23T09:56:05;11.57;;;4.53;;
45338;SDS011;31071;51.478;5.710;2022-10-23T09:58:51;9.53;;;4.23;;
45338;SDS011;31071;51.478;5.710;2022-10-23T10:01:33;12.32;;;4.28;;
45338;SDS011;31071;51.478;5.710;2022-10-23T10:04:00;8.30;;;4.40;;
45338;SDS011;31071;51.478;5.710;2022-10-23T10:06:27;8.98;;;4.18;;
45338;SDS011;31071;51.478;5.710;2022-10-23T10:09:02;7.80;;;3.80;;
45338;SDS011;31071;51.478;5.710;2022-10-23T10:11:36;8.18;;;4.50;;
45338;SDS011;31071;51.478;5.710;2022-10-23T10:17:05;9.45;;;4.25;;
45338;SDS011;31071;51.478;5.710;2022-10-23T10:20:06;7.60;;;4.07;;
45338;SDS011;31071;51.478;5.710;2022-10-23T10:23:21;9.02;;;4.47;;
45338;SDS011;31071;51.478;5.710;2022-10-23T10:25:37;10.27;;;4.18;;
45338;SDS011;31071;51.478;5.710;2022-10-23T10:28:16;7.95;;;4.03;;
45338;SDS011;31071;51.478;5.710;2022-10-23T10:31:08;4.88;;;3.60;;
45338;SDS011;31071;51.478;5.710;2022-10-23T10:34:04;11.95;;;4.50;;
45338;SDS011;31071;51.478;5.710;2022-10-23T10:50:34;7.15;;;3.30;;
45338;SDS011;31071;51.478;5.710;2022-10-23T10:55:52;9.10;;;3.30;;
45338;SDS011;31071;51.478;5.710;2022-10-23T11:00:49;7.82;;;3.88;;
45338;SDS011;31071;51.478;5.710;2022-10-23T11:03:23;8.65;;;3.67;;
45338;SDS011;31071;51.478;5.710;2022-10-23T11:05:55;6.78;;;3.58;;
45338;SDS011;31071;51.478;5.710;2022-10-23T11:10:52;5.75;;;3.08;;
45338;SDS011;31071;51.478;5.710;2022-10-23T11:13:26;5.65;;;3.25;;
45338;SDS011;31071;51.478;5.710;2022-10-23T11:15:55;10.57;;;3.45;;
45338;SDS011;31071;51.478;5.710;2022-10-23T11:18:25;5.28;;;3.30;;
45338;SDS011;31071;51.478;5.710;2022-10-23T11:21:17;6.32;;;3.20;;
45338;SDS011;31071;51.478;5.710;2022-10-23T11:26:56;5.05;;;3.25;;
45338;SDS011;31071;51.478;5.710;2022-10-23T11:38:16;5.03;;;2.65;;
45338;SDS011;31071;51.478;5.710;2022-10-23T11:40:50;13.63;;;2.90;;
45338;SDS011;31071;51.478;5.710;2022-10-23T11:43:33;6.90;;;2.83;;
45338;SDS011;31071;51.478;5.710;2022-10-23T11:46:29;6.15;;;2.78;;
45338;SDS011;31071;51.478;5.710;2022-10-23T11:48:59;5.57;;;2.55;;
45338;SDS011;31071;51.478;5.710;2022-10-23T11:57:21;8.95;;;2.67;;
45338;SDS011;31071;51.478;5.710;2022-10-23T12:02:26;4.43;;;2.33;;
45338;SDS011;31071;51.478;5.710;2022-10-23T12:05:03;6.40;;;2.55;;
45338;SDS011;31071;51.478;5.710;2022-10-23T12:07:52;5.07;;;2.25;;
45338;SDS011;31071;51.478;5.710;2022-10-23T12:10:22;8.65;;;2.58;;
45338;SDS011;31071;51.478;5.710;2022-10-23T12:12:58;6.85;;;2.20;;
45338;SDS011;31071;51.478;5.710;2022-10-23T12:15:29;6.93;;;2.30;;
45338;SDS011;31071;51.478;5.710;2022-10-23T12:18:12;7.60;;;2.72;;
45338;SDS011;31071;51.478;5.710;2022-10-23T12:20:45;4.93;;;2.10;;
45338;SDS011;31071;51.478;5.710;2022-10-23T12:23:38;6.85;;;2.35;;
45338;SDS011;31071;51.478;5.710;2022-10-23T12:31:52;5.65;;;2.17;;
45338;SDS011;31071;51.478;5.710;2022-10-23T12:37:03;5.85;;;2.22;;
45338;SDS011;31071;51.478;5.710;2022-10-23T12:39:53;6.70;;;2.22;;
45338;SDS011;31071;51.478;5.710;2022-10-23T12:42:33;6.25;;;1.60;;
45338;SDS011;31071;51.478;5.710;2022-10-23T12:45:18;3.50;;;1.95;;
45338;SDS011;31071;51.478;5.710;2022-10-23T12:47:49;10.90;;;2.00;;
45338;SDS011;31071;51.478;5.710;2022-10-23T12:50:16;4.30;;;1.80;;
45338;SDS011;31071;51.478;5.710;2022-10-23T12:52:51;4.43;;;1.67;;
45338;SDS011;31071;51.478;5.710;2022-10-23T12:55:16;5.35;;;2.20;;
45338;SDS011;31071;51.478;5.710;2022-10-23T12:57:42;6.15;;;1.75;;
45338;SDS011;31071;51.478;5.710;2022-10-23T13:00:09;5.68;;;1.90;;
45338;SDS011;31071;51.478;5.710;2022-10-23T13:02:39;8.35;;;2.00;;
45338;SDS011;31071;51.478;5.710;2022-10-23T13:05:05;4.70;;;1.80;;
45338;SDS011;31071;51.478;5.710;2022-10-23T13:07:34;5.63;;;2.28;;
45338;SDS011;31071;51.478;5.710;2022-10-23T13:10:04;6.32;;;1.70;;
45338;SDS011;31071;51.478;5.710;2022-10-23T13:12:33;2.45;;;2.00;;
45338;SDS011;31071;51.478;5.710;2022-10-23T13:15:11;8.38;;;2.17;;
45338;SDS011;31071;51.478;5.710;2022-10-23T13:17:41;4.97;;;1.77;;
45338;SDS011;31071;51.478;5.710;2022-10-23T13:22:45;4.70;;;2.30;;
45338;SDS011;31071;51.478;5.710;2022-10-23T13:27:46;8.77;;;2.40;;
45338;SDS011;31071;51.478;5.710;2022-10-23T13:30:28;6.05;;;1.98;;
45338;SDS011;31071;51.478;5.710;2022-10-23T13:32:58;8.88;;;1.90;;
45338;SDS011;31071;51.478;5.710;2022-10-23T13:35:24;7.25;;;2.40;;
45338;SDS011;31071;51.478;5.710;2022-10-23T13:37:50;5.05;;;2.25;;
45338;SDS011;31071;51.478;5.710;2022-10-23T13:40:21;6.10;;;2.20;;
45338;SDS011;31071;51.478;5.710;2022-10-23T13:42:57;5.88;;;2.05;;
45338;SDS011;31071;51.478;5.710;2022-10-23T13:45:24;5.47;;;2.03;;
45338;SDS011;31071;51.478;5.710;2022-10-23T13:47:50;5.72;;;1.77;;
45338;SDS011;31071;51.478;5.710;2022-10-23T13:50:17;6.40;;;2.05;;
45338;SDS011;31071;51.478;5.710;2022-10-23T13:52:43;4.72;;;2.08;;
45338;SDS011;31071;51.478;5.710;2022-10-23T13:55:22;7.00;;;1.90;;
45338;SDS011;31071;51.478;5.710;2022-10-23T13:57:49;5.50;;;2.10;;
45338;SDS011;31071;51.478;5.710;2022-10-23T14:00:15;6.10;;;2.15;;
45338;SDS011;31071;51.478;5.710;2022-10-23T14:02:41;5.47;;;2.22;;
45338;SDS011;31071;51.478;5.710;2022-10-23T14:05:08;8.23;;;2.25;;
45338;SDS011;31071;51.478;5.710;2022-10-23T14:07:33;4.35;;;2.25;;
45338;SDS011;31071;51.478;5.710;2022-10-23T14:09:59;5.10;;;2.58;;
45338;SDS011;31071;51.478;5.710;2022-10-23T14:12:30;5.13;;;2.65;;
45338;SDS011;31071;51.478;5.710;2022-10-23T14:15:03;3.85;;;2.47;;
45338;SDS011;31071;51.478;5.710;2022-10-23T14:17:29;6.53;;;2.38;;
45338;SDS011;31071;51.478;5.710;2022-10-23T14:19:54;4.07;;;2.60;;
45338;SDS011;31071;51.478;5.710;2022-10-23T14:22:20;5.35;;;2.17;;
45338;SDS011;31071;51.478;5.710;2022-10-23T14:24:45;4.75;;;2.28;;
45338;SDS011;31071;51.478;5.710;2022-10-23T14:27:11;7.55;;;2.40;;
45338;SDS011;31071;51.478;5.710;2022-10-23T14:29:38;6.50;;;2.80;;
45338;SDS011;31071;51.478;5.710;2022-10-23T14:32:10;9.73;;;3.22;;
45338;SDS011;31071;51.478;5.710;2022-10-23T14:34:37;5.53;;;2.85;;
45338;SDS011;31071;51.478;5.710;2022-10-23T14:37:06;4.80;;;2.83;;
45338;SDS011;31071;51.478;5.710;2022-10-23T14:39:31;8.55;;;3.17;;
45338;SDS011;31071;51.478;5.710;2022-10-23T14:41:57;5.43;;;2.65;;
45338;SDS011;31071;51.478;5.710;2022-10-23T14:44:22;5.65;;;2.25;;
45338;SDS011;31071;51.478;5.710;2022-10-23T14:46:48;5.60;;;2.58;;
45338;SDS011;31071;51.478;5.710;2022-10-23T14:49:13;5.97;;;2.63;;
45338;SDS011;31071;51.478;5.710;2022-10-23T14:51:38;7.82;;;2.80;;
45338;SDS011;31071;51.478;5.710;2022-10-23T14:54:05;4.30;;;2.35;;
45338;SDS011;31071;51.478;5.710;2022-10-23T14:56:32;4.22;;;2.63;;
45338;SDS011;31071;51.478;5.710;2022-10-23T14:59:00;6.97;;;2.80;;
45338;SDS011;31071;51.478;5.710;2022-10-23T15:01:29;4.10;;;2.55;;
45338;SDS011;31071;51.478;5.710;2022-10-23T15:03:55;8.68;;;2.47;;
45338;SDS011;31071;51.478;5.710;2022-10-23T15:06:21;7.13;;;2.78;;
45338;SDS011;31071;51.478;5.710;2022-10-23T15:08:51;9.73;;;2.83;;
45338;SDS011;31071;51.478;5.710;2022-10-23T15:11:21;5.03;;;2.47;;
45338;SDS011;31071;51.478;5.710;2022-10-23T15:13:47;6.57;;;2.65;;
45338;SDS011;31071;51.478;5.710;2022-10-23T15:16:13;6.43;;;2.33;;
45338;SDS011;31071;51.478;5.710;2022-10-23T15:18:38;6.60;;;3.10;;
45338;SDS011;31071;51.478;5.710;2022-10-23T15:21:04;5.72;;;3.00;;
45338;SDS011;31071;51.478;5.710;2022-10-23T15:23:32;6.80;;;2.58;;
45338;SDS011;31071;51.478;5.710;2022-10-23T15:26:02;5.35;;;2.70;;
45338;SDS011;31071;51.478;5.710;2022-10-23T15:28:32;7.00;;;2.90;;
45338;SDS011;31071;51.478;5.710;2022-10-23T15:30:58;7.70;;;2.72;;
45338;SDS011;31071;51.478;5.710;2022-10-23T15:33:25;4.63;;;2.72;;
45338;SDS011;31071;51.478;5.710;2022-10-23T15:35:51;8.82;;;3.00;;
45338;SDS011;31071;51.478;5.710;2022-10-23T15:38:17;7.57;;;3.20;;
45338;SDS011;31071;51.478;5.710;2022-10-23T15:40:43;7.97;;;2.75;;
45338;SDS011;31071;51.478;5.710;2022-10-23T15:43:10;5.40;;;2.83;;
45338;SDS011;31071;51.478;5.710;2022-10-23T15:45:36;6.15;;;2.97;;
45338;SDS011;31071;51.478;5.710;2022-10-23T15:48:01;8.90;;;3.30;;
45338;SDS011;31071;51.478;5.710;2022-10-23T15:50:27;5.43;;;3.00;;
45338;SDS011;31071;51.478;5.710;2022-10-23T15:52:53;5.70;;;3.17;;
45338;SDS011;31071;51.478;5.710;2022-10-23T15:55:19;12.48;;;3.08;;
45338;SDS011;31071;51.478;5.710;2022-10-23T15:57:44;6.82;;;3.25;;
45338;SDS011;31071;51.478;5.710;2022-10-23T16:00:12;6.40;;;2.78;;
45338;SDS011;31071;51.478;5.710;2022-10-23T16:02:38;7.70;;;2.90;;
45338;SDS011;31071;51.478;5.710;2022-10-23T16:05:04;8.02;;;3.10;;
45338;SDS011;31071;51.478;5.710;2022-10-23T16:07:30;5.10;;;3.00;;
45338;SDS011;31071;51.478;5.710;2022-10-23T16:09:56;8.25;;;3.30;;
45338;SDS011;31071;51.478;5.710;2022-10-23T16:12:22;13.23;;;2.80;;
45338;SDS011;31071;51.478;5.710;2022-10-23T16:14:48;8.82;;;3.35;;
45338;SDS011;31071;51.478;5.710;2022-10-23T16:17:13;7.68;;;3.03;;
45338;SDS011;31071;51.478;5.710;2022-10-23T16:19:39;7.03;;;2.80;;
45338;SDS011;31071;51.478;5.710;2022-10-23T16:22:06;8.18;;;2.92;;
45338;SDS011;31071;51.478;5.710;2022-10-23T16:24:32;5.55;;;2.75;;
45338;SDS011;31071;51.478;5.710;2022-10-23T16:26:58;5.90;;;3.17;;
45338;SDS011;31071;51.478;5.710;2022-10-23T16:29:24;9.63;;;3.58;;
45338;SDS011;31071;51.478;5.710;2022-10-23T16:31:51;7.00;;;3.20;;
45338;SDS011;31071;51.478;5.710;2022-10-23T16:34:18;4.90;;;2.70;;
45338;SDS011;31071;51.478;5.710;2022-10-23T16:36:44;4.45;;;3.00;;
45338;SDS011;31071;51.478;5.710;2022-10-23T16:39:11;5.10;;;3.30;;